Time;durP1;ratioP1;P1;durP2;ratioP2;P2;SDS_P1;SDS_P2;PMS_P1;PMS_P2;Temp;Humidity;BMP_temperature;BMP_pressure;BME280_temperature;BME280_humidity;BME280_pressure;Samples;Min_cycle;Max_cycle;Signal;HPM_P1;HPM_P2
2023/05/27 00:00:30;;;;;;;9.47;6.10;;;;;15.20;97403.00;;;;4920395;29;20582;-69
2023/05/27 00:03:19;;;;;;;6.43;5.67;;;;;15.10;97393.00;;;;4913108;29;20698;-69
2023/05/27 00:06:08;;;;;;;8.53;5.97;;;;;15.10;97394.00;;;;4927255;29;20225;-70
2023/05/27 00:08:59;;;;;;;7.77;5.90;;;;;14.70;97388.00;;;;4917770;29;20617;-69
2023/05/27 00:11:48;;;;;;;8.37;6.43;;;;;14.90;97395.00;;;;4928697;29;20216;-69
2023/05/27 00:14:37;;;;;;;8.43;6.27;;;;;14.80;97393.00;;;;4924605;29;20215;-69
2023/05/27 00:17:26;;;;;;;10.37;6.40;;;;;14.80;97386.00;;;;4922910;29;20215;-69
2023/05/27 00:20:15;;;;;;;9.00;6.30;;;;;14.80;97390.00;;;;4925291;29;20197;-69
2023/05/27 00:23:05;;;;;;;10.60;6.47;;;;;15.00;97393.00;;;;4919914;29;20244;-69
2023/05/27 00:25:55;;;;;;;11.27;6.60;;;;;15.10;97391.00;;;;4929144;28;20612;-69
2023/05/27 00:28:44;;;;;;;6.20;5.10;;;;;15.40;97392.00;;;;4923674;29;20209;-69
2023/05/27 00:31:33;;;;;;;8.93;5.73;;;;;15.40;97393.00;;;;4931592;29;20589;-69
2023/05/27 00:34:22;;;;;;;9.30;7.30;;;;;15.00;97399.00;;;;4924742;29;20246;-69
2023/05/27 00:37:11;;;;;;;7.87;6.87;;;;;14.90;97394.00;;;;4922330;29;20229;-69
2023/05/27 00:40:00;;;;;;;6.90;5.63;;;;;15.30;97395.00;;;;4921193;29;20449;-69
2023/05/27 00:42:51;;;;;;;7.77;5.93;;;;;15.00;97399.00;;;;4927570;29;20233;-69
2023/05/27 00:45:40;;;;;;;6.40;5.77;;;;;15.20;97404.00;;;;4927289;28;20241;-69
2023/05/27 00:48:29;;;;;;;9.80;6.40;;;;;15.20;97401.00;;;;4926740;29;20197;-68
2023/05/27 00:51:18;;;;;;;8.43;6.03;;;;;14.90;97394.00;;;;4922072;29;20255;-68
2023/05/27 00:54:08;;;;;;;7.37;6.13;;;;;15.10;97396.00;;;;4919608;29;20209;-69
2023/05/27 00:56:57;;;;;;;7.77;5.70;;;;;15.20;97387.00;;;;4927930;29;20228;-69
2023/05/27 00:59:48;;;;;;;8.80;5.93;;;;;15.10;97381.00;;;;4927865;29;20212;-68
2023/05/27 01:02:40;;;;;;;6.83;5.90;;;;;15.20;97381.00;;;;4925396;29;20217;-68
2023/05/27 01:05:29;;;;;;;7.97;6.37;;;;;14.90;97382.00;;;;4930285;29;20221;-69
2023/05/27 01:08:25;;;;;;;10.10;5.77;;;;;15.00;97383.00;;;;4927243;29;20200;-69
2023/05/27 01:11:15;;;;;;;9.73;6.37;;;;;14.80;97374.00;;;;4917347;29;20228;-68
2023/05/27 01:14:10;;;;;;;8.23;6.53;;;;;14.40;97366.00;;;;4915905;29;20709;-69
2023/05/27 01:17:02;;;;;;;11.03;6.23;;;;;14.60;97371.00;;;;4918657;29;20232;-69
2023/05/27 01:19:53;;;;;;;8.43;7.23;;;;;14.80;97369.00;;;;4923808;29;20216;-68
2023/05/27 01:22:43;;;;;;;6.77;5.63;;;;;14.80;97369.00;;;;4923866;29;20208;-68
2023/05/27 01:25:32;;;;;;;7.07;5.93;;;;;14.70;97374.00;;;;4923939;29;20229;-68
2023/05/27 01:28:21;;;;;;;11.70;5.93;;;;;14.80;97376.00;;;;4929905;29;20201;-69
2023/05/27 01:31:14;;;;;;;10.10;6.40;;;;;14.60;97373.00;;;;4928424;29;20226;-68
2023/05/27 01:34:06;;;;;;;10.17;6.93;;;;;14.20;97367.00;;;;4923793;29;20201;-70
2023/05/27 01:37:00;;;;;;;7.87;6.13;;;;;13.90;97368.00;;;;4915087;29;20236;-70
2023/05/27 01:39:51;;;;;;;9.27;5.77;;;;;14.30;97364.00;;;;4924028;29;20212;-70
2023/05/27 01:42:41;;;;;;;10.83;7.07;;;;;14.60;97362.00;;;;4925670;29;20377;-69
2023/05/27 01:45:30;;;;;;;8.63;6.53;;;;;14.20;97362.00;;;;4924164;29;20221;-69
2023/05/27 01:48:19;;;;;;;10.20;7.00;;;;;14.00;97354.00;;;;4928799;29;20200;-68
2023/05/27 01:51:08;;;;;;;8.67;6.17;;;;;13.90;97354.00;;;;4926493;29;20232;-69
2023/05/27 01:53:57;;;;;;;9.87;5.93;;;;;14.00;97355.00;;;;4931413;29;20221;-69
2023/05/27 01:56:48;;;;;;;10.77;6.83;;;;;14.20;97353.00;;;;4930262;29;20225;-69
2023/05/27 01:59:37;;;;;;;7.13;5.73;;;;;14.50;97347.00;;;;4930743;29;20212;-68
2023/05/27 02:02:26;;;;;;;7.47;6.40;;;;;14.40;97352.00;;;;4923013;29;20647;-70
2023/05/27 02:05:15;;;;;;;9.27;5.87;;;;;14.20;97355.00;;;;4930324;28;20740;-70
2023/05/27 02:08:04;;;;;;;9.87;5.23;;;;;14.20;97354.00;;;;4922145;29;20206;-69
2023/05/27 02:10:54;;;;;;;9.77;6.73;;;;;14.10;97344.00;;;;4918673;29;20229;-69
2023/05/27 02:13:44;;;;;;;8.20;6.53;;;;;13.80;97342.00;;;;4925267;28;20208;-69
2023/05/27 02:16:33;;;;;;;7.40;6.00;;;;;13.80;97338.00;;;;4922037;29;20243;-70
2023/05/27 02:19:24;;;;;;;8.73;6.40;;;;;13.70;97341.00;;;;4922263;29;20412;-69
2023/05/27 02:22:13;;;;;;;10.63;7.47;;;;;13.50;97334.00;;;;4933961;29;20200;-70
2023/05/27 02:25:03;;;;;;;6.83;6.07;;;;;13.50;97340.00;;;;4928907;29;20212;-69
2023/05/27 02:27:52;;;;;;;9.10;6.80;;;;;13.50;97340.00;;;;4919441;29;20220;-70
2023/05/27 02:30:42;;;;;;;8.73;6.77;;;;;13.30;97338.00;;;;4928970;29;20236;-69
2023/05/27 02:33:31;;;;;;;8.40;5.87;;;;;13.40;97340.00;;;;4922492;29;20256;-69
2023/05/27 02:36:22;;;;;;;8.83;7.33;;;;;13.50;97343.00;;;;4921619;29;20243;-69
2023/05/27 02:39:11;;;;;;;8.50;6.37;;;;;13.70;97339.00;;;;4917550;29;20208;-69
2023/05/27 02:42:00;;;;;;;9.40;6.83;;;;;13.80;97329.00;;;;4923562;29;20205;-69
2023/05/27 02:44:49;;;;;;;9.83;7.07;;;;;13.90;97329.00;;;;4924186;29;20205;-69
2023/05/27 02:47:40;;;;;;;13.10;8.27;;;;;13.60;97335.00;;;;4923164;29;20209;-69
2023/05/27 02:50:29;;;;;;;6.67;5.87;;;;;13.40;97328.00;;;;4922538;29;20565;-69
2023/05/27 02:53:18;;;;;;;11.80;6.67;;;;;13.20;97331.00;;;;4923594;29;20202;-70
2023/05/27 02:56:07;;;;;;;10.00;7.23;;;;;13.10;97326.00;;;;4920916;29;20225;-69
2023/05/27 02:58:56;;;;;;;11.20;7.27;;;;;12.60;97317.00;;;;4923955;29;20212;-70
2023/05/27 03:01:46;;;;;;;11.83;6.90;;;;;12.90;97323.00;;;;4913453;29;20205;-70
2023/05/27 03:04:36;;;;;;;16.03;7.53;;;;;12.70;97328.00;;;;4919718;29;20208;-70
2023/05/27 03:07:25;;;;;;;8.67;7.13;;;;;13.00;97323.00;;;;4928299;29;20263;-69
2023/05/27 03:10:14;;;;;;;8.90;6.43;;;;;13.10;97327.00;;;;4925623;29;20207;-70
2023/05/27 03:13:03;;;;;;;8.90;7.33;;;;;13.30;97337.00;;;;4923476;29;20225;-69
2023/05/27 03:15:54;;;;;;;8.93;7.03;;;;;13.40;97331.00;;;;4922060;29;20240;-68
2023/05/27 03:18:43;;;;;;;9.07;7.53;;;;;13.50;97338.00;;;;4920306;29;20678;-68
2023/05/27 03:21:33;;;;;;;7.43;5.93;;;;;12.80;97328.00;;;;4921791;29;20197;-69
2023/05/27 03:24:23;;;;;;;12.30;7.00;;;;;12.80;97333.00;;;;4929388;29;20223;-68
2023/05/27 03:27:12;;;;;;;10.50;7.43;;;;;13.10;97333.00;;;;4924323;29;20244;-69
2023/05/27 03:30:01;;;;;;;7.87;7.07;;;;;13.10;97334.00;;;;4917887;29;20584;-69
2023/05/27 03:32:50;;;;;;;11.07;6.97;;;;;13.20;97339.00;;;;4915807;29;20690;-69
2023/05/27 03:35:39;;;;;;;7.67;6.27;;;;;12.90;97343.00;;;;4932076;29;20228;-69
2023/05/27 03:38:30;;;;;;;12.27;7.30;;;;;12.60;97336.00;;;;4928645;29;20205;-68
2023/05/27 03:41:19;;;;;;;10.83;7.27;;;;;12.30;97345.00;;;;4918124;29;20216;-68
2023/05/27 03:44:08;;;;;;;9.27;7.00;;;;;12.40;97345.00;;;;4919758;29;20205;-69
2023/05/27 03:46:57;;;;;;;10.80;7.07;;;;;12.30;97347.00;;;;4916441;29;20232;-69
2023/05/27 03:49:46;;;;;;;9.43;7.00;;;;;12.50;97343.00;;;;4922371;29;20568;-69
2023/05/27 03:52:36;;;;;;;11.17;7.20;;;;;12.50;97341.00;;;;4928434;29;20611;-70
2023/05/27 03:55:27;;;;;;;11.80;7.87;;;;;12.50;97341.00;;;;4924744;29;20757;-70
2023/05/27 03:58:17;;;;;;;12.37;7.37;;;;;12.20;97343.00;;;;4917835;29;20725;-70
2023/05/27 04:01:06;;;;;;;8.90;6.90;;;;;12.40;97335.00;;;;4916219;29;20215;-70
2023/05/27 04:03:55;;;;;;;11.73;7.40;;;;;12.70;97348.00;;;;4923570;29;20658;-69
2023/05/27 04:06:44;;;;;;;10.10;7.13;;;;;12.60;97347.00;;;;4926564;29;20249;-70
2023/05/27 04:09:33;;;;;;;15.60;8.60;;;;;12.80;97351.00;;;;4926578;29;20209;-70
2023/05/27 04:12:24;;;;;;;10.33;7.77;;;;;12.90;97348.00;;;;4926496;29;20227;-69
2023/05/27 04:15:13;;;;;;;14.23;7.00;;;;;13.20;97352.00;;;;4915179;29;20242;-68
2023/05/27 04:18:02;;;;;;;8.97;7.67;;;;;13.10;97346.00;;;;4932341;29;20713;-69
2023/05/27 04:20:52;;;;;;;8.90;6.93;;;;;13.20;97351.00;;;;4942290;23;20231;-87
2023/05/27 04:23:41;;;;;;;9.57;7.57;;;;;13.40;97349.00;;;;4952555;29;20196;-87
2023/05/27 04:26:30;;;;;;;8.83;7.13;;;;;13.50;97352.00;;;;4972656;28;20226;-87
2023/05/27 04:29:22;;;;;;;8.10;7.23;;;;;13.50;97350.00;;;;4965428;28;20202;-86
2023/05/27 04:32:12;;;;;;;11.00;7.13;;;;;13.60;97345.00;;;;4969296;28;20230;-87
2023/05/27 04:35:01;;;;;;;9.23;7.07;;;;;13.90;97350.00;;;;4971465;28;20219;-87
2023/05/27 04:37:50;;;;;;;11.87;7.57;;;;;14.10;97347.00;;;;4968554;28;20210;-87
2023/05/27 04:40:41;;;;;;;8.17;7.37;;;;;13.90;97339.00;;;;4963974;28;20572;-86
2023/05/27 04:43:30;;;;;;;8.60;6.90;;;;;13.90;97348.00;;;;4974355;28;20689;-86
2023/05/27 04:46:21;;;;;;;8.10;7.23;;;;;14.10;97352.00;;;;4955365;28;20303;-87
2023/05/27 04:49:11;;;;;;;11.50;8.13;;;;;14.10;97347.00;;;;4963540;28;20214;-87
2023/05/27 04:52:00;;;;;;;11.67;7.27;;;;;13.70;97343.00;;;;4965815;28;20499;-86
2023/05/27 04:54:49;;;;;;;10.60;7.07;;;;;13.90;97337.00;;;;4973871;28;20231;-87
2023/05/27 04:57:40;;;;;;;14.53;9.27;;;;;13.90;97337.00;;;;4971455;28;20219;-86
2023/05/27 05:00:38;;;;;;;10.47;7.43;;;;;13.80;97332.00;;;;4974349;28;20211;-85
2023/05/27 05:03:39;;;;;;;9.50;7.23;;;;;14.00;97334.00;;;;4971983;28;20258;-87
2023/05/27 05:06:28;;;;;;;14.67;7.83;;;;;14.00;97336.00;;;;4971843;28;20296;-86
2023/05/27 05:09:17;;;;;;;12.30;7.77;;;;;14.40;97338.00;;;;4959285;28;20200;-85
2023/05/27 05:12:07;;;;;;;10.17;7.07;;;;;14.80;97348.00;;;;4962402;28;20235;-87
2023/05/27 05:14:56;;;;;;;9.87;8.37;;;;;14.70;97341.00;;;;4972354;28;20622;-85
2023/05/27 05:17:45;;;;;;;8.57;7.53;;;;;14.80;97350.00;;;;4974087;28;20208;-86
2023/05/27 05:20:36;;;;;;;13.97;6.83;;;;;14.70;97349.00;;;;4964296;28;20568;-85
2023/05/27 05:23:25;;;;;;;10.33;8.80;;;;;14.90;97355.00;;;;4953972;28;20247;-88
2023/05/27 05:26:14;;;;;;;9.93;7.73;;;;;15.50;97362.00;;;;4945150;29;20223;-87
2023/05/27 05:29:03;;;;;;;11.40;8.63;;;;;16.00;97359.00;;;;4954826;28;20215;-86
2023/05/27 05:31:52;;;;;;;8.37;7.33;;;;;16.30;97359.00;;;;4953208;28;20259;-87
2023/05/27 05:34:41;;;;;;;10.17;6.80;;;;;16.40;97358.00;;;;4945458;28;20252;-87
2023/05/27 05:37:32;;;;;;;14.23;8.43;;;;;16.50;97354.00;;;;4952162;29;20574;-86
2023/05/27 05:40:22;;;;;;;12.67;8.07;;;;;16.40;97347.00;;;;4954600;28;20204;-86
2023/05/27 05:43:11;;;;;;;11.63;7.90;;;;;16.90;97338.00;;;;4957990;28;20200;-86
2023/05/27 05:46:01;;;;;;;11.90;7.37;;;;;17.30;97336.00;;;;4960256;29;20252;-87
2023/05/27 05:48:53;;;;;;;10.67;7.93;;;;;17.80;97346.00;;;;4949585;29;20219;-88
2023/05/27 05:51:42;;;;;;;8.90;7.10;;;;;18.00;97346.00;;;;4944960;28;20730;-87
2023/05/27 05:54:32;;;;;;;10.17;5.87;;;;;18.20;97352.00;;;;4954326;28;20238;-87
2023/05/27 05:57:22;;;;;;;10.70;4.97;;;;;18.30;97343.00;;;;4956729;28;20203;-89
2023/05/27 06:00:12;;;;;;;8.20;6.07;;;;;18.70;97348.00;;;;4949081;28;20255;-89
2023/05/27 06:03:02;;;;;;;10.03;6.50;;;;;18.80;97354.00;;;;4947734;28;20207;-89
2023/05/27 06:05:51;;;;;;;14.13;5.80;;;;;18.90;97346.00;;;;4948693;29;20261;-88
2023/05/27 06:08:40;;;;;;;8.57;5.70;;;;;19.30;97354.00;;;;4949974;28;20590;-87
2023/05/27 06:11:31;;;;;;;6.93;5.07;;;;;19.40;97351.00;;;;4950319;28;20200;-88
2023/05/27 06:14:22;;;;;;;7.30;4.97;;;;;19.60;97348.00;;;;4952275;28;20237;-88
2023/05/27 06:17:11;;;;;;;7.93;5.60;;;;;19.70;97363.00;;;;4943107;28;20220;-88
2023/05/27 06:20:00;;;;;;;6.83;4.83;;;;;19.60;97354.00;;;;4949274;28;20216;-88
2023/05/27 06:22:49;;;;;;;9.10;4.87;;;;;19.80;97349.00;;;;4948467;29;20250;-87
2023/05/27 06:25:38;;;;;;;9.20;5.23;;;;;20.10;97357.00;;;;4951755;28;20232;-87
2023/05/27 06:28:29;;;;;;;6.70;4.83;;;;;20.10;97360.00;;;;4951717;28;20208;-88
2023/05/27 06:31:18;;;;;;;10.97;4.37;;;;;20.10;97357.00;;;;4952883;29;20219;-88
2023/05/27 06:34:07;;;;;;;8.77;4.40;;;;;20.40;97342.00;;;;4950993;28;20230;-87
2023/05/27 06:36:56;;;;;;;6.77;4.33;;;;;20.90;97356.00;;;;4944377;29;20499;-88
2023/05/27 06:39:46;;;;;;;8.17;3.93;;;;;20.90;97354.00;;;;4954099;28;20200;-89
2023/05/27 06:42:35;;;;;;;6.43;4.30;;;;;20.90;97350.00;;;;4949954;28;20204;-87
2023/05/27 06:45:25;;;;;;;7.13;4.17;;;;;21.00;97349.00;;;;4948538;28;20234;-89
2023/05/27 06:48:14;;;;;;;7.23;3.80;;;;;21.20;97345.00;;;;4950004;29;20208;-88
2023/05/27 06:51:04;;;;;;;4.27;3.40;;;;;21.20;97348.00;;;;4954328;28;20200;-87
2023/05/27 06:53:53;;;;;;;5.67;4.03;;;;;21.50;97349.00;;;;4954284;28;20232;-88
2023/05/27 06:56:42;;;;;;;7.57;3.93;;;;;21.60;97357.00;;;;4949440;28;20207;-87
2023/05/27 06:59:31;;;;;;;5.20;3.30;;;;;21.80;97354.00;;;;4957520;28;20207;-87
2023/05/27 07:02:21;;;;;;;7.80;3.83;;;;;21.90;97355.00;;;;4948022;28;20204;-89
2023/05/27 07:05:11;;;;;;;5.50;3.60;;;;;22.10;97355.00;;;;4941301;28;20276;-87
2023/05/27 07:08:00;;;;;;;8.30;3.43;;;;;22.10;97347.00;;;;4948004;29;20206;-88
2023/05/27 07:10:49;;;;;;;6.30;3.97;;;;;22.40;97351.00;;;;4945500;29;20215;-86
2023/05/27 07:13:38;;;;;;;8.77;4.00;;;;;22.20;97353.00;;;;4950984;28;20703;-88
2023/05/27 07:16:27;;;;;;;8.27;3.67;;;;;22.40;97361.00;;;;4951009;28;20236;-86
2023/05/27 07:19:18;;;;;;;3.33;3.03;;;;;22.60;97366.00;;;;4949311;28;20666;-87
2023/05/27 07:22:07;;;;;;;6.80;3.37;;;;;22.80;97361.00;;;;4972184;28;20206;-88
2023/05/27 07:24:56;;;;;;;6.03;2.93;;;;;22.90;97359.00;;;;4968365;28;20222;-87
2023/05/27 07:27:46;;;;;;;14.83;4.00;;;;;22.70;97361.00;;;;4971844;28;20580;-87
2023/05/27 07:30:35;;;;;;;6.37;3.23;;;;;22.90;97363.00;;;;4970196;28;20204;-87
2023/05/27 07:33:24;;;;;;;5.97;3.17;;;;;21.80;97361.00;;;;4972540;28;20241;-87
2023/05/27 07:36:14;;;;;;;4.47;2.83;;;;;22.70;97355.00;;;;4965880;28;20235;-89
2023/05/27 07:39:03;;;;;;;4.77;2.80;;;;;23.40;97360.00;;;;4968834;28;20210;-87
2023/05/27 07:41:52;;;;;;;4.77;3.43;;;;;23.10;97355.00;;;;4967472;28;20222;-88
2023/05/27 07:44:42;;;;;;;5.77;3.17;;;;;23.60;97356.00;;;;4964642;28;20258;-89
2023/05/27 07:47:31;;;;;;;6.50;2.90;;;;;23.20;97362.00;;;;4963504;28;20203;-88
2023/05/27 07:50:20;;;;;;;3.97;2.63;;;;;22.70;97356.00;;;;4960197;28;20568;-88
2023/05/27 07:53:10;;;;;;;5.30;2.30;;;;;23.30;97362.00;;;;4969043;28;20203;-87
2023/05/27 07:56:00;;;;;;;7.53;3.17;;;;;23.40;97347.00;;;;4969920;28;20222;-87
2023/05/27 07:58:49;;;;;;;5.17;2.73;;;;;23.20;97359.00;;;;4964514;28;20221;-88
2023/05/27 08:01:38;;;;;;;4.87;2.40;;;;;23.60;97345.00;;;;4969658;28;20819;-87
2023/05/27 08:04:27;;;;;;;7.40;2.90;;;;;23.70;97354.00;;;;4972641;28;20693;-87
2023/05/27 08:07:16;;;;;;;4.23;2.80;;;;;23.40;97339.00;;;;4964534;28;20570;-88
2023/05/27 08:10:08;;;;;;;7.70;3.00;;;;;23.40;97334.00;;;;4968708;28;20211;-87
2023/05/27 08:12:57;;;;;;;5.43;3.27;;;;;23.90;97335.00;;;;4968302;28;20199;-86
2023/05/27 08:15:47;;;;;;;6.20;3.07;;;;;23.70;97334.00;;;;4970631;28;20227;-88
2023/05/27 08:18:36;;;;;;;6.60;3.17;;;;;23.10;97327.00;;;;4965717;28;20243;-88
2023/05/27 08:21:25;;;;;;;3.93;2.60;;;;;23.10;97326.00;;;;4968901;28;20272;-88
2023/05/27 08:24:15;;;;;;;7.33;2.80;;;;;23.70;97322.00;;;;4968628;28;20616;-87
2023/05/27 08:27:06;;;;;;;5.00;3.13;;;;;24.30;97323.00;;;;4971007;28;20258;-86
2023/05/27 08:29:55;;;;;;;6.43;2.97;;;;;24.20;97320.00;;;;4963250;28;20203;-86
2023/05/27 08:32:45;;;;;;;6.80;3.27;;;;;24.20;97321.00;;;;4967635;28;20214;-87
2023/05/27 08:35:34;;;;;;;4.43;2.63;;;;;25.10;97326.00;;;;4965149;28;20943;-86
2023/05/27 08:38:23;;;;;;;4.93;2.93;;;;;23.60;97319.00;;;;4956743;28;20207;-87
2023/05/27 08:41:12;;;;;;;3.50;2.70;;;;;22.10;97305.00;;;;4968645;28;20370;-85
2023/05/27 08:44:03;;;;;;;3.33;2.40;;;;;23.60;97318.00;;;;4964757;28;20690;-86
2023/05/27 08:46:55;;;;;;;7.77;2.83;;;;;24.30;97313.00;;;;4965819;28;20211;-86
2023/05/27 08:49:44;;;;;;;9.20;3.10;;;;;24.70;97302.00;;;;4966853;28;20208;-86
2023/05/27 08:52:34;;;;;;;4.17;2.37;;;;;23.60;97310.00;;;;4971016;28;20211;-88
2023/05/27 08:55:24;;;;;;;4.30;2.83;;;;;24.70;97301.00;;;;4972559;28;20744;-87
2023/05/27 08:58:14;;;;;;;3.40;2.47;;;;;25.40;97302.00;;;;4967287;28;20200;-87
2023/05/27 09:01:05;;;;;;;4.97;2.23;;;;;24.70;97302.00;;;;4969082;28;20199;-88
2023/05/27 09:03:55;;;;;;;3.77;2.93;;;;;23.70;97300.00;;;;4973598;28;20203;-88
2023/05/27 09:06:45;;;;;;;5.57;3.03;;;;;25.00;97307.00;;;;4972101;28;20257;-88
2023/05/27 09:09:34;;;;;;;8.90;3.23;;;;;25.20;97293.00;;;;4970192;28;20689;-88
2023/05/27 09:12:24;;;;;;;3.73;2.33;;;;;26.00;97303.00;;;;4973608;28;20696;-87
2023/05/27 09:15:14;;;;;;;4.93;2.27;;;;;26.20;97307.00;;;;4969995;28;20227;-87
2023/05/27 09:18:05;;;;;;;5.10;2.40;;;;;25.90;97305.00;;;;4968557;28;20585;-87
2023/05/27 09:20:56;;;;;;;4.13;2.47;;;;;25.70;97308.00;;;;4965710;28;20698;-86
2023/05/27 09:23:45;;;;;;;4.83;2.73;;;;;24.60;97292.00;;;;4969327;28;20212;-88
2023/05/27 09:26:35;;;;;;;2.83;2.30;;;;;24.50;97287.00;;;;4970405;28;20231;-88
2023/05/27 09:29:25;;;;;;;6.73;3.17;;;;;25.20;97287.00;;;;4964326;28;20199;-88
2023/05/27 09:32:23;;;;;;;6.50;2.90;;;;;25.80;97287.00;;;;4965668;28;20708;-88
2023/05/27 09:35:15;;;;;;;7.73;3.03;;;;;26.10;97292.00;;;;4965404;28;20227;-86
2023/05/27 09:38:07;;;;;;;5.73;3.00;;;;;26.50;97300.00;;;;4960312;28;20210;-86
2023/05/27 09:40:56;;;;;;;3.23;2.00;;;;;27.00;97297.00;;;;4953672;28;20705;-88
2023/05/27 09:43:56;;;;;;;4.67;2.57;;;;;25.90;97290.00;;;;4964022;28;20561;-86
2023/05/27 09:46:46;;;;;;;7.57;3.17;;;;;25.30;97272.00;;;;4956766;28;20204;-89
2023/05/27 09:49:36;;;;;;;4.87;3.27;;;;;24.30;97280.00;;;;4969157;28;20207;-89
2023/05/27 09:52:27;;;;;;;5.93;2.80;;;;;24.50;97281.00;;;;4964453;28;20208;-88
2023/05/27 09:55:17;;;;;;;7.93;2.97;;;;;25.10;97273.00;;;;4970203;28;20242;-87
2023/05/27 09:58:07;;;;;;;4.90;2.80;;;;;25.00;97280.00;;;;4960021;28;20199;-88
2023/05/27 10:00:58;;;;;;;5.67;2.97;;;;;26.70;97273.00;;;;4966526;28;20208;-89
2023/05/27 10:03:48;;;;;;;5.63;2.67;;;;;25.60;97273.00;;;;4965788;28;20227;-88
2023/05/27 10:06:37;;;;;;;4.47;2.60;;;;;23.60;97264.00;;;;4968125;28;20623;-88
2023/05/27 10:09:28;;;;;;;5.07;2.83;;;;;24.10;97274.00;;;;4969951;28;20217;-87
2023/05/27 10:12:17;;;;;;;4.80;2.73;;;;;24.10;97260.00;;;;4969482;28;20210;-88
2023/05/27 10:15:08;;;;;;;4.17;3.03;;;;;25.10;97257.00;;;;4953733;28;20231;-88
2023/05/27 10:17:58;;;;;;;7.33;3.10;;;;;25.00;97257.00;;;;4966335;28;20208;-86
2023/05/27 10:20:51;;;;;;;6.23;2.97;;;;;25.90;97263.00;;;;4962489;23;20251;-76
2023/05/27 10:23:40;;;;;;;6.03;3.00;;;;;27.70;97271.00;;;;4921663;29;20208;-76
2023/05/27 10:26:39;;;;;;;4.47;2.80;;;;;28.40;97266.00;;;;4926597;28;20212;-75
2023/05/27 10:29:37;;;;;;;7.87;3.07;;;;;28.60;97260.00;;;;4945827;28;20212;-75
2023/05/27 10:32:27;;;;;;;4.57;2.40;;;;;28.00;97261.00;;;;4959593;23;20230;-84
2023/05/27 10:35:17;;;;;;;5.27;2.87;;;;;27.70;97258.00;;;;4986707;23;20242;-72
2023/05/27 10:38:16;;;;;;;3.50;2.97;;;;;28.50;97249.00;;;;4950740;28;20207;-70
2023/05/27 10:41:06;;;;;;;4.33;2.87;;;;;29.30;97255.00;;;;4950001;28;20685;-70
2023/05/27 10:44:00;;;;;;;6.73;2.93;;;;;29.60;97249.00;;;;4953387;28;20226;-70
2023/05/27 10:46:49;;;;;;;4.13;2.73;;;;;30.30;97242.00;;;;4950996;29;20205;-70
2023/05/27 10:49:39;;;;;;;4.03;3.13;;;;;29.70;97249.00;;;;4947786;29;20213;-70
2023/05/27 10:52:33;;;;;;;4.40;3.40;;;;;30.60;97248.00;;;;4950216;29;20227;-70
2023/05/27 10:55:23;;;;;;;7.10;3.00;;;;;30.50;97243.00;;;;4951368;29;20225;-70
2023/05/27 10:58:12;;;;;;;4.50;3.03;;;;;29.30;97230.00;;;;4948829;29;20215;-71
2023/05/27 11:01:10;;;;;;;5.60;3.30;;;;;29.60;97264.00;;;;4950339;29;20211;-70
2023/05/27 11:04:00;;;;;;;8.10;3.13;;;;;30.70;97238.00;;;;4939475;29;20228;-70
2023/05/27 11:06:59;;;;;;;7.53;3.30;;;;;30.60;97241.00;;;;4949607;29;20560;-69
2023/05/27 11:09:52;;;;;;;3.03;2.83;;;;;31.60;97235.00;;;;4953382;28;20215;-70
2023/05/27 11:12:46;;;;;;;4.87;2.80;;;;;29.90;97231.00;;;;4949210;28;20705;-69
2023/05/27 11:15:35;;;;;;;5.20;3.50;;;;;29.30;97262.00;;;;4949254;29;20236;-68
2023/05/27 11:18:25;;;;;;;5.60;2.87;;;;;28.30;97274.00;;;;4949120;29;20563;-70
2023/05/27 11:21:16;;;;;;;5.03;3.60;;;;;28.40;97255.00;;;;4947003;28;20218;-69
2023/05/27 11:24:16;;;;;;;6.93;3.83;;;;;29.60;97213.00;;;;4943005;29;20431;-70
2023/05/27 11:27:10;;;;;;;6.57;2.63;;;;;29.60;97206.00;;;;4942873;28;20609;-71
2023/05/27 11:30:03;;;;;;;5.07;3.73;;;;;30.70;97211.00;;;;4947616;29;20236;-70
2023/05/27 11:32:52;;;;;;;6.77;3.60;;;;;31.30;97218.00;;;;4951326;29;20588;-71
2023/05/27 11:35:42;;;;;;;4.80;3.43;;;;;30.90;97214.00;;;;4951983;29;20236;-70
2023/05/27 11:38:32;;;;;;;5.10;3.17;;;;;31.00;97214.00;;;;4953540;29;20257;-71
2023/05/27 11:41:22;;;;;;;4.67;3.27;;;;;30.10;97207.00;;;;4944351;29;20215;-70
2023/05/27 11:44:11;;;;;;;6.50;3.47;;;;;30.00;97210.00;;;;4950832;28;20226;-72
2023/05/27 11:47:01;;;;;;;6.33;4.13;;;;;31.20;97206.00;;;;4947130;28;20212;-71
2023/05/27 11:49:51;;;;;;;5.53;3.37;;;;;30.00;97204.00;;;;4953103;29;20214;-73
2023/05/27 11:52:52;;;;;;;5.27;3.60;;;;;28.90;97203.00;;;;4950574;29;20229;-70
2023/05/27 11:55:41;;;;;;;8.50;4.40;;;;;28.70;97200.00;;;;4954938;28;20222;-72
2023/05/27 11:58:30;;;;;;;5.80;3.57;;;;;28.70;97196.00;;;;4960050;28;20205;-71
2023/05/27 12:01:20;;;;;;;5.50;3.50;;;;;30.40;97207.00;;;;4947824;29;20590;-71
2023/05/27 12:04:09;;;;;;;7.90;3.53;;;;;29.90;97214.00;;;;4951454;29;20227;-70
2023/05/27 12:07:00;;;;;;;6.00;3.70;;;;;28.00;97213.00;;;;4934596;28;20212;-74
2023/05/27 12:09:52;;;;;;;4.20;3.50;;;;;29.30;97210.00;;;;4951036;28;20242;-69
2023/05/27 12:12:44;;;;;;;7.73;3.47;;;;;30.60;97207.00;;;;4951807;28;20273;-71
2023/05/27 12:15:33;;;;;;;3.23;2.77;;;;;29.30;97202.00;;;;4945106;29;20221;-68
2023/05/27 12:18:23;;;;;;;5.33;3.77;;;;;28.90;97201.00;;;;4951946;28;20253;-73
2023/05/27 12:21:12;;;;;;;5.13;3.13;;;;;29.30;97191.00;;;;4948888;29;20210;-73
2023/05/27 12:24:01;;;;;;;6.27;4.30;;;;;30.70;97201.00;;;;4951439;28;20232;-74
2023/05/27 12:26:51;;;;;;;5.63;3.13;;;;;28.50;97197.00;;;;4944869;28;20683;-72
2023/05/27 12:29:40;;;;;;;6.30;4.37;;;;;27.20;97179.00;;;;4956720;28;20662;-68
2023/05/27 12:32:29;;;;;;;4.97;3.13;;;;;28.60;97185.00;;;;4954631;29;20224;-72
2023/05/27 12:35:18;;;;;;;4.83;3.90;;;;;29.80;97183.00;;;;4953755;28;20292;-67
2023/05/27 12:38:07;;;;;;;4.67;3.30;;;;;30.40;97185.00;;;;4952129;29;20201;-73
2023/05/27 12:40:57;;;;;;;9.17;3.37;;;;;31.70;97183.00;;;;4957362;28;20585;-69
2023/05/27 12:43:48;;;;;;;3.27;2.97;;;;;32.40;97191.00;;;;4941023;28;20274;-72
2023/05/27 12:46:38;;;;;;;7.13;3.80;;;;;33.10;97183.00;;;;4953773;29;20211;-74
2023/05/27 12:49:28;;;;;;;6.20;3.60;;;;;34.10;97177.00;;;;4956058;29;20214;-73
2023/05/27 12:52:17;;;;;;;4.82;3.10;;;;;32.80;97186.00;;;;4949754;28;20237;-75
2023/05/27 12:55:07;;;;;;;9.60;3.42;;;;;33.50;97180.00;;;;4951981;28;20211;-72
2023/05/27 12:57:56;;;;;;;4.93;3.58;;;;;31.80;97177.00;;;;4951482;28;20210;-74
2023/05/27 13:00:46;;;;;;;5.18;3.65;;;;;30.10;97182.00;;;;4959621;28;20205;-69
2023/05/27 13:03:35;;;;;;;6.60;3.88;;;;;31.00;97169.00;;;;4955567;29;20285;-72
2023/05/27 13:06:24;;;;;;;5.00;3.88;;;;;33.10;97170.00;;;;4951513;28;20579;-73
2023/05/27 13:09:14;;;;;;;6.05;3.42;;;;;33.70;97163.00;;;;4950389;29;20210;-72
2023/05/27 13:12:03;;;;;;;6.07;3.63;;;;;34.10;97162.00;;;;4948752;28;20210;-72
2023/05/27 13:14:52;;;;;;;6.25;4.03;;;;;33.30;97165.00;;;;4950720;28;20215;-73
2023/05/27 13:17:43;;;;;;;5.28;3.70;;;;;33.20;97158.00;;;;4946965;28;20228;-72
2023/05/27 13:20:32;;;;;;;8.18;4.38;;;;;33.70;97158.00;;;;4952146;29;20241;-70
2023/05/27 13:23:21;;;;;;;6.43;3.95;;;;;29.90;97141.00;;;;4951825;29;20709;-71
2023/05/27 13:26:11;;;;;;;4.75;3.08;;;;;32.20;97147.00;;;;4938982;28;20216;-69
2023/05/27 13:29:00;;;;;;;6.75;3.58;;;;;29.80;97148.00;;;;4949259;28;20210;-71
2023/05/27 13:31:49;;;;;;;8.25;3.63;;;;;30.40;97130.00;;;;4954471;28;20207;-68
2023/05/27 13:34:40;;;;;;;3.92;3.00;;;;;30.50;97135.00;;;;4953796;28;20273;-73
2023/05/27 13:37:29;;;;;;;8.77;3.95;;;;;31.50;97145.00;;;;4952445;29;20250;-69
2023/05/27 13:40:19;;;;;;;3.13;2.50;;;;;31.60;97151.00;;;;4953726;29;20203;-71
2023/05/27 13:43:08;;;;;;;6.85;4.32;;;;;32.70;97134.00;;;;4942243;29;20231;-71
2023/05/27 13:45:57;;;;;;;4.70;3.85;;;;;33.50;97138.00;;;;4952824;28;20209;-72
2023/05/27 13:48:47;;;;;;;5.93;3.25;;;;;34.20;97150.00;;;;4955545;28;20210;-73
2023/05/27 13:51:44;;;;;;;4.18;3.10;;;;;34.20;97143.00;;;;4953660;28;20592;-73
2023/05/27 13:54:33;;;;;;;6.00;3.92;;;;;34.00;97147.00;;;;4949770;29;20215;-71
2023/05/27 13:57:22;;;;;;;6.15;3.03;;;;;34.50;97139.00;;;;4957350;28;20218;-71
2023/05/27 14:00:13;;;;;;;8.82;3.70;;;;;34.30;97135.00;;;;4941697;28;20677;-71
2023/05/27 14:03:02;;;;;;;6.50;3.58;;;;;34.70;97128.00;;;;4952310;28;20220;-72
2023/05/27 14:05:51;;;;;;;7.18;4.40;;;;;35.10;97125.00;;;;4955248;28;20717;-72
2023/05/27 14:08:42;;;;;;;5.00;3.33;;;;;34.40;97121.00;;;;4952262;28;20206;-72